sensor_id;sensor_type;location;lat;lon;timestamp;P1;durP1;ratioP1;P2;durP2;ratioP2
5587;SDS011;2816;49.778;9.986;2023-12-14T00:01:51;11.17;;;7.60;;
5587;SDS011;2816;49.778;9.986;2023-12-14T00:04:19;10.80;;;7.97;;
5587;SDS011;2816;49.778;9.986;2023-12-14T00:06:46;15.60;;;8.63;;
5587;SDS011;2816;49.778;9.986;2023-12-14T00:09:13;12.87;;;7.70;;
5587;SDS011;2816;49.778;9.986;2023-12-14T00:11:40;11.90;;;7.60;;
5587;SDS011;2816;49.778;9.986;2023-12-14T00:14:07;12.63;;;7.33;;
5587;SDS011;2816;49.778;9.986;2023-12-14T00:16:34;11.07;;;7.30;;
5587;SDS011;2816;49.778;9.986;2023-12-14T00:19:02;11.27;;;7.50;;
5587;SDS011;2816;49.778;9.986;2023-12-14T00:21:30;8.87;;;6.70;;
5587;SDS011;2816;49.778;9.986;2023-12-14T00:23:57;11.50;;;8.07;;
5587;SDS011;2816;49.778;9.986;2023-12-14T00:26:24;9.57;;;6.73;;
5587;SDS011;2816;49.778;9.986;2023-12-14T00:28:51;10.13;;;7.17;;
5587;SDS011;2816;49.778;9.986;2023-12-14T00:31:18;9.10;;;7.03;;
5587;SDS011;2816;49.778;9.986;2023-12-14T00:33:44;12.57;;;7.13;;
5587;SDS011;2816;49.778;9.986;2023-12-14T00:36:17;12.37;;;7.80;;
5587;SDS011;2816;49.778;9.986;2023-12-14T00:38:45;8.63;;;7.10;;
5587;SDS011;2816;49.778;9.986;2023-12-14T00:41:12;9.23;;;6.80;;
5587;SDS011;2816;49.778;9.986;2023-12-14T00:43:39;11.70;;;8.30;;
5587;SDS011;2816;49.778;9.986;2023-12-14T00:46:07;10.27;;;7.50;;
5587;SDS011;2816;49.778;9.986;2023-12-14T00:48:34;17.43;;;7.63;;
5587;SDS011;2816;49.778;9.986;2023-12-14T00:51:01;8.00;;;6.20;;
5587;SDS011;2816;49.778;9.986;2023-12-14T00:53:28;10.03;;;7.00;;
5587;SDS011;2816;49.778;9.986;2023-12-14T00:55:56;10.33;;;6.97;;
5587;SDS011;2816;49.778;9.986;2023-12-14T00:58:23;9.43;;;7.30;;
5587;SDS011;2816;49.778;9.986;2023-12-14T01:00:50;10.50;;;6.83;;
5587;SDS011;2816;49.778;9.986;2023-12-14T01:03:19;9.27;;;6.37;;
5587;SDS011;2816;49.778;9.986;2023-12-14T01:05:46;7.23;;;5.50;;
5587;SDS011;2816;49.778;9.986;2023-12-14T01:08:13;8.40;;;6.17;;
5587;SDS011;2816;49.778;9.986;2023-12-14T01:10:40;8.57;;;5.90;;
5587;SDS011;2816;49.778;9.986;2023-12-14T01:13:08;9.13;;;6.00;;
5587;SDS011;2816;49.778;9.986;2023-12-14T01:15:36;8.00;;;5.87;;
5587;SDS011;2816;49.778;9.986;2023-12-14T01:18:03;9.17;;;6.20;;
5587;SDS011;2816;49.778;9.986;2023-12-14T01:20:30;7.93;;;5.80;;
5587;SDS011;2816;49.778;9.986;2023-12-14T01:22:57;7.83;;;5.77;;
5587;SDS011;2816;49.778;9.986;2023-12-14T01:25:24;7.30;;;5.50;;
5587;SDS011;2816;49.778;9.986;2023-12-14T01:27:51;8.40;;;5.40;;
5587;SDS011;2816;49.778;9.986;2023-12-14T01:30:19;8.90;;;5.33;;
5587;SDS011;2816;49.778;9.986;2023-12-14T01:32:46;7.17;;;4.60;;
5587;SDS011;2816;49.778;9.986;2023-12-14T01:35:13;5.80;;;4.83;;
5587;SDS011;2816;49.778;9.986;2023-12-14T01:37:40;7.43;;;5.43;;
5587;SDS011;2816;49.778;9.986;2023-12-14T01:40:07;7.77;;;5.27;;
5587;SDS011;2816;49.778;9.986;2023-12-14T01:42:34;8.97;;;6.10;;
5587;SDS011;2816;49.778;9.986;2023-12-14T01:45:01;8.07;;;5.67;;
5587;SDS011;2816;49.778;9.986;2023-12-14T01:47:30;7.80;;;6.30;;
5587;SDS011;2816;49.778;9.986;2023-12-14T01:49:57;9.40;;;6.17;;
5587;SDS011;2816;49.778;9.986;2023-12-14T01:52:24;13.47;;;5.77;;
5587;SDS011;2816;49.778;9.986;2023-12-14T01:54:50;7.83;;;5.50;;
5587;SDS011;2816;49.778;9.986;2023-12-14T01:57:17;10.47;;;5.67;;
5587;SDS011;2816;49.778;9.986;2023-12-14T01:59:44;10.87;;;6.17;;
5587;SDS011;2816;49.778;9.986;2023-12-14T02:02:11;10.33;;;6.10;;
5587;SDS011;2816;49.778;9.986;2023-12-14T02:04:39;7.47;;;5.83;;
5587;SDS011;2816;49.778;9.986;2023-12-14T02:07:06;9.57;;;5.90;;
5587;SDS011;2816;49.778;9.986;2023-12-14T02:09:33;7.40;;;5.97;;
5587;SDS011;2816;49.778;9.986;2023-12-14T02:12:00;12.67;;;6.47;;
5587;SDS011;2816;49.778;9.986;2023-12-14T02:14:27;8.53;;;6.03;;
5587;SDS011;2816;49.778;9.986;2023-12-14T02:16:54;8.07;;;6.10;;
5587;SDS011;2816;49.778;9.986;2023-12-14T02:19:21;7.33;;;6.00;;
5587;SDS011;2816;49.778;9.986;2023-12-14T02:21:49;8.40;;;6.03;;
5587;SDS011;2816;49.778;9.986;2023-12-14T02:24:17;9.90;;;6.33;;
5587;SDS011;2816;49.778;9.986;2023-12-14T02:26:44;8.87;;;6.50;;
5587;SDS011;2816;49.778;9.986;2023-12-14T02:29:12;11.00;;;6.93;;
5587;SDS011;2816;49.778;9.986;2023-12-14T02:31:39;12.77;;;7.57;;
5587;SDS011;2816;49.778;9.986;2023-12-14T02:34:06;8.63;;;6.77;;
5587;SDS011;2816;49.778;9.986;2023-12-14T02:36:33;8.37;;;6.63;;
5587;SDS011;2816;49.778;9.986;2023-12-14T02:39:00;8.97;;;6.67;;
5587;SDS011;2816;49.778;9.986;2023-12-14T02:41:28;11.70;;;6.30;;
5587;SDS011;2816;49.778;9.986;2023-12-14T02:43:55;10.30;;;6.90;;
5587;SDS011;2816;49.778;9.986;2023-12-14T02:46:22;10.70;;;7.20;;
5587;SDS011;2816;49.778;9.986;2023-12-14T02:48:48;11.13;;;8.40;;
5587;SDS011;2816;49.778;9.986;2023-12-14T02:51:15;11.60;;;7.20;;
5587;SDS011;2816;49.778;9.986;2023-12-14T02:53:42;9.67;;;7.27;;
5587;SDS011;2816;49.778;9.986;2023-12-14T02:56:09;10.93;;;7.80;;
5587;SDS011;2816;49.778;9.986;2023-12-14T02:58:38;10.67;;;7.60;;
5587;SDS011;2816;49.778;9.986;2023-12-14T03:01:05;16.60;;;8.00;;
5587;SDS011;2816;49.778;9.986;2023-12-14T03:03:32;12.50;;;7.93;;
5587;SDS011;2816;49.778;9.986;2023-12-14T03:05:59;11.20;;;8.17;;
5587;SDS011;2816;49.778;9.986;2023-12-14T03:08:26;12.30;;;7.97;;
5587;SDS011;2816;49.778;9.986;2023-12-14T03:10:52;11.13;;;7.37;;
5587;SDS011;2816;49.778;9.986;2023-12-14T03:13:19;13.20;;;8.37;;
5587;SDS011;2816;49.778;9.986;2023-12-14T03:15:48;12.77;;;7.23;;
5587;SDS011;2816;49.778;9.986;2023-12-14T03:18:15;12.63;;;7.53;;
5587;SDS011;2816;49.778;9.986;2023-12-14T03:20:42;11.07;;;7.73;;
5587;SDS011;2816;49.778;9.986;2023-12-14T03:23:09;10.67;;;7.73;;
5587;SDS011;2816;49.778;9.986;2023-12-14T03:25:35;10.20;;;7.47;;
5587;SDS011;2816;49.778;9.986;2023-12-14T03:28:02;11.60;;;7.83;;
5587;SDS011;2816;49.778;9.986;2023-12-14T03:30:29;10.50;;;7.10;;
5587;SDS011;2816;49.778;9.986;2023-12-14T03:32:58;12.93;;;7.33;;
5587;SDS011;2816;49.778;9.986;2023-12-14T03:35:24;10.53;;;7.13;;
5587;SDS011;2816;49.778;9.986;2023-12-14T03:37:51;11.80;;;7.63;;
5587;SDS011;2816;49.778;9.986;2023-12-14T03:40:18;10.23;;;7.70;;
5587;SDS011;2816;49.778;9.986;2023-12-14T03:42:45;15.07;;;7.60;;
5587;SDS011;2816;49.778;9.986;2023-12-14T03:45:12;13.13;;;7.70;;
5587;SDS011;2816;49.778;9.986;2023-12-14T03:47:39;10.17;;;7.37;;
5587;SDS011;2816;49.778;9.986;2023-12-14T03:50:10;14.53;;;7.07;;
5587;SDS011;2816;49.778;9.986;2023-12-14T03:52:38;10.23;;;7.83;;
5587;SDS011;2816;49.778;9.986;2023-12-14T03:55:05;10.70;;;7.50;;
5587;SDS011;2816;49.778;9.986;2023-12-14T03:57:32;9.00;;;7.17;;
5587;SDS011;2816;49.778;9.986;2023-12-14T03:59:59;9.50;;;7.90;;
5587;SDS011;2816;49.778;9.986;2023-12-14T04:02:26;12.23;;;8.10;;
5587;SDS011;2816;49.778;9.986;2023-12-14T04:04:53;11.07;;;7.63;;
5587;SDS011;2816;49.778;9.986;2023-12-14T04:07:21;11.63;;;7.53;;
5587;SDS011;2816;49.778;9.986;2023-12-14T04:09:48;10.80;;;7.77;;
5587;SDS011;2816;49.778;9.986;2023-12-14T04:12:15;10.90;;;7.87;;
5587;SDS011;2816;49.778;9.986;2023-12-14T04:14:42;11.47;;;8.50;;
5587;SDS011;2816;49.778;9.986;2023-12-14T04:17:09;14.40;;;8.83;;
5587;SDS011;2816;49.778;9.986;2023-12-14T04:19:37;11.33;;;7.90;;
5587;SDS011;2816;49.778;9.986;2023-12-14T04:22:04;10.90;;;7.30;;
5587;SDS011;2816;49.778;9.986;2023-12-14T04:24:33;11.13;;;7.30;;
5587;SDS011;2816;49.778;9.986;2023-12-14T04:27:00;10.10;;;7.40;;
5587;SDS011;2816;49.778;9.986;2023-12-14T04:29:27;13.67;;;7.07;;
5587;SDS011;2816;49.778;9.986;2023-12-14T04:31:54;10.73;;;7.73;;
5587;SDS011;2816;49.778;9.986;2023-12-14T04:34:21;13.00;;;8.43;;
5587;SDS011;2816;49.778;9.986;2023-12-14T04:36:48;11.90;;;7.63;;
5587;SDS011;2816;49.778;9.986;2023-12-14T04:39:15;13.13;;;7.93;;
5587;SDS011;2816;49.778;9.986;2023-12-14T04:41:44;11.67;;;8.17;;
5587;SDS011;2816;49.778;9.986;2023-12-14T04:44:11;10.53;;;7.40;;
5587;SDS011;2816;49.778;9.986;2023-12-14T04:46:37;11.33;;;8.00;;
5587;SDS011;2816;49.778;9.986;2023-12-14T04:49:04;10.03;;;7.73;;
5587;SDS011;2816;49.778;9.986;2023-12-14T04:51:31;11.07;;;7.07;;
5587;SDS011;2816;49.778;9.986;2023-12-14T04:53:58;13.17;;;7.30;;
5587;SDS011;2816;49.778;9.986;2023-12-14T04:56:25;11.73;;;7.80;;
5587;SDS011;2816;49.778;9.986;2023-12-14T04:58:53;10.60;;;8.00;;
5587;SDS011;2816;49.778;9.986;2023-12-14T05:01:20;11.07;;;7.33;;
5587;SDS011;2816;49.778;9.986;2023-12-14T05:03:47;14.87;;;7.80;;
5587;SDS011;2816;49.778;9.986;2023-12-14T05:06:14;11.60;;;7.60;;
5587;SDS011;2816;49.778;9.986;2023-12-14T05:08:41;10.67;;;7.97;;
5587;SDS011;2816;49.778;9.986;2023-12-14T05:11:08;10.33;;;7.13;;
5587;SDS011;2816;49.778;9.986;2023-12-14T05:13:35;12.83;;;7.70;;
5587;SDS011;2816;49.778;9.986;2023-12-14T05:16:03;9.63;;;7.97;;
5587;SDS011;2816;49.778;9.986;2023-12-14T05:18:30;10.00;;;7.23;;
5587;SDS011;2816;49.778;9.986;2023-12-14T05:20:57;11.67;;;8.40;;
5587;SDS011;2816;49.778;9.986;2023-12-14T05:23:25;10.70;;;8.70;;
5587;SDS011;2816;49.778;9.986;2023-12-14T05:25:52;12.73;;;9.70;;
5587;SDS011;2816;49.778;9.986;2023-12-14T05:28:19;21.10;;;11.60;;
5587;SDS011;2816;49.778;9.986;2023-12-14T05:30:46;19.13;;;11.90;;
5587;SDS011;2816;49.778;9.986;2023-12-14T05:33:14;17.67;;;12.63;;
5587;SDS011;2816;49.778;9.986;2023-12-14T05:35:41;18.13;;;12.67;;
5587;SDS011;2816;49.778;9.986;2023-12-14T05:38:08;17.63;;;11.70;;
5587;SDS011;2816;49.778;9.986;2023-12-14T05:40:35;18.53;;;11.30;;
5587;SDS011;2816;49.778;9.986;2023-12-14T05:43:02;18.43;;;12.60;;
5587;SDS011;2816;49.778;9.986;2023-12-14T05:45:28;16.50;;;12.10;;
5587;SDS011;2816;49.778;9.986;2023-12-14T05:47:55;15.40;;;10.63;;
5587;SDS011;2816;49.778;9.986;2023-12-14T05:50:24;15.97;;;11.63;;
5587;SDS011;2816;49.778;9.986;2023-12-14T05:52:50;15.30;;;10.93;;
5587;SDS011;2816;49.778;9.986;2023-12-14T05:55:17;15.80;;;9.93;;
5587;SDS011;2816;49.778;9.986;2023-12-14T05:57:46;16.20;;;11.77;;
5587;SDS011;2816;49.778;9.986;2023-12-14T06:00:14;18.07;;;12.07;;
5587;SDS011;2816;49.778;9.986;2023-12-14T06:02:41;13.67;;;10.07;;
5587;SDS011;2816;49.778;9.986;2023-12-14T06:05:08;24.23;;;13.00;;
5587;SDS011;2816;49.778;9.986;2023-12-14T06:07:37;19.80;;;12.47;;
5587;SDS011;2816;49.778;9.986;2023-12-14T06:10:04;22.40;;;13.50;;
5587;SDS011;2816;49.778;9.986;2023-12-14T06:12:31;20.77;;;13.27;;
5587;SDS011;2816;49.778;9.986;2023-12-14T06:14:58;16.80;;;12.30;;
5587;SDS011;2816;49.778;9.986;2023-12-14T06:17:25;18.17;;;12.87;;
5587;SDS011;2816;49.778;9.986;2023-12-14T06:19:52;19.23;;;11.47;;
5587;SDS011;2816;49.778;9.986;2023-12-14T06:22:19;17.10;;;11.30;;
5587;SDS011;2816;49.778;9.986;2023-12-14T06:24:47;20.27;;;11.87;;
5587;SDS011;2816;49.778;9.986;2023-12-14T06:27:14;17.53;;;11.23;;
5587;SDS011;2816;49.778;9.986;2023-12-14T06:29:41;25.30;;;12.07;;
5587;SDS011;2816;49.778;9.986;2023-12-14T06:32:08;20.03;;;11.43;;
5587;SDS011;2816;49.778;9.986;2023-12-14T06:34:35;15.83;;;11.47;;
5587;SDS011;2816;49.778;9.986;2023-12-14T06:37:02;18.30;;;11.40;;
5587;SDS011;2816;49.778;9.986;2023-12-14T06:39:30;19.67;;;12.03;;
5587;SDS011;2816;49.778;9.986;2023-12-14T06:41:59;17.80;;;11.07;;
5587;SDS011;2816;49.778;9.986;2023-12-14T06:44:25;17.83;;;11.60;;
5587;SDS011;2816;49.778;9.986;2023-12-14T06:46:54;17.40;;;12.67;;
5587;SDS011;2816;49.778;9.986;2023-12-14T06:49:23;21.37;;;13.07;;
5587;SDS011;2816;49.778;9.986;2023-12-14T06:51:51;17.60;;;10.80;;
5587;SDS011;2816;49.778;9.986;2023-12-14T06:54:18;18.63;;;10.83;;
5587;SDS011;2816;49.778;9.986;2023-12-14T06:56:45;15.80;;;9.70;;
5587;SDS011;2816;49.778;9.986;2023-12-14T06:59:13;19.67;;;10.90;;
5587;SDS011;2816;49.778;9.986;2023-12-14T07:01:40;15.37;;;11.70;;
5587;SDS011;2816;49.778;9.986;2023-12-14T07:04:07;17.67;;;10.20;;
5587;SDS011;2816;49.778;9.986;2023-12-14T07:06:35;13.73;;;10.03;;
5587;SDS011;2816;49.778;9.986;2023-12-14T07:09:02;16.03;;;10.90;;
5587;SDS011;2816;49.778;9.986;2023-12-14T07:11:29;16.87;;;10.40;;
5587;SDS011;2816;49.778;9.986;2023-12-14T07:13:55;20.10;;;12.57;;
5587;SDS011;2816;49.778;9.986;2023-12-14T07:16:24;18.00;;;10.27;;
5587;SDS011;2816;49.778;9.986;2023-12-14T07:18:50;22.13;;;10.40;;
5587;SDS011;2816;49.778;9.986;2023-12-14T07:21:17;12.43;;;9.83;;
5587;SDS011;2816;49.778;9.986;2023-12-14T07:23:44;15.00;;;10.13;;
5587;SDS011;2816;49.778;9.986;2023-12-14T07:26:12;24.03;;;14.60;;
5587;SDS011;2816;49.778;9.986;2023-12-14T07:28:39;22.27;;;13.10;;
5587;SDS011;2816;49.778;9.986;2023-12-14T07:31:06;20.57;;;12.40;;
5587;SDS011;2816;49.778;9.986;2023-12-14T07:33:34;16.67;;;11.20;;
5587;SDS011;2816;49.778;9.986;2023-12-14T07:36:01;18.47;;;10.77;;
5587;SDS011;2816;49.778;9.986;2023-12-14T07:38:30;22.13;;;11.40;;
5587;SDS011;2816;49.778;9.986;2023-12-14T07:40:57;17.13;;;11.40;;
5587;SDS011;2816;49.778;9.986;2023-12-14T07:43:24;17.50;;;11.47;;
5587;SDS011;2816;49.778;9.986;2023-12-14T07:45:51;18.40;;;11.53;;
5587;SDS011;2816;49.778;9.986;2023-12-14T07:48:18;20.90;;;12.63;;
5587;SDS011;2816;49.778;9.986;2023-12-14T07:50:46;19.87;;;11.70;;
5587;SDS011;2816;49.778;9.986;2023-12-14T07:53:13;19.93;;;11.60;;
5587;SDS011;2816;49.778;9.986;2023-12-14T07:55:40;18.73;;;12.40;;
5587;SDS011;2816;49.778;9.986;2023-12-14T07:58:07;19.43;;;12.80;;
5587;SDS011;2816;49.778;9.986;2023-12-14T08:00:34;22.70;;;14.23;;
5587;SDS011;2816;49.778;9.986;2023-12-14T08:03:01;22.37;;;13.90;;
5587;SDS011;2816;49.778;9.986;2023-12-14T08:05:27;18.40;;;13.03;;
5587;SDS011;2816;49.778;9.986;2023-12-14T08:07:56;19.93;;;13.00;;
5587;SDS011;2816;49.778;9.986;2023-12-14T08:10:23;22.43;;;13.83;;
5587;SDS011;2816;49.778;9.986;2023-12-14T08:12:50;17.90;;;13.03;;
5587;SDS011;2816;49.778;9.986;2023-12-14T08:15:17;21.67;;;13.40;;
5587;SDS011;2816;49.778;9.986;2023-12-14T08:17:44;22.87;;;12.90;;
5587;SDS011;2816;49.778;9.986;2023-12-14T08:20:11;21.63;;;13.03;;
5587;SDS011;2816;49.778;9.986;2023-12-14T08:22:38;20.30;;;13.17;;
5587;SDS011;2816;49.778;9.986;2023-12-14T08:25:12;17.90;;;12.60;;
5587;SDS011;2816;49.778;9.986;2023-12-14T08:27:40;18.73;;;12.63;;
5587;SDS011;2816;49.778;9.986;2023-12-14T08:30:07;20.10;;;12.97;;
5587;SDS011;2816;49.778;9.986;2023-12-14T08:32:35;21.37;;;13.23;;
5587;SDS011;2816;49.778;9.986;2023-12-14T08:35:02;22.90;;;13.40;;
5587;SDS011;2816;49.778;9.986;2023-12-14T08:37:30;18.20;;;12.63;;
5587;SDS011;2816;49.778;9.986;2023-12-14T08:39:57;18.47;;;12.83;;
5587;SDS011;2816;49.778;9.986;2023-12-14T08:42:25;20.53;;;12.90;;
5587;SDS011;2816;49.778;9.986;2023-12-14T08:44:52;17.17;;;11.23;;
5587;SDS011;2816;49.778;9.986;2023-12-14T08:47:19;14.67;;;10.73;;
5587;SDS011;2816;49.778;9.986;2023-12-14T08:49:46;19.23;;;12.37;;
5587;SDS011;2816;49.778;9.986;2023-12-14T08:52:13;18.37;;;11.10;;
5587;SDS011;2816;49.778;9.986;2023-12-14T08:54:39;15.00;;;10.70;;
5587;SDS011;2816;49.778;9.986;2023-12-14T08:57:08;24.90;;;13.67;;
5587;SDS011;2816;49.778;9.986;2023-12-14T08:59:36;18.67;;;11.90;;
5587;SDS011;2816;49.778;9.986;2023-12-14T09:02:04;22.03;;;14.57;;
5587;SDS011;2816;49.778;9.986;2023-12-14T09:04:33;24.43;;;14.13;;
5587;SDS011;2816;49.778;9.986;2023-12-14T09:07:01;28.57;;;15.33;;
5587;SDS011;2816;49.778;9.986;2023-12-14T09:09:29;25.17;;;15.77;;
5587;SDS011;2816;49.778;9.986;2023-12-14T09:11:56;21.13;;;13.73;;
5587;SDS011;2816;49.778;9.986;2023-12-14T09:14:23;24.10;;;14.67;;
5587;SDS011;2816;49.778;9.986;2023-12-14T09:16:51;23.63;;;14.90;;
5587;SDS011;2816;49.778;9.986;2023-12-14T09:19:18;26.70;;;15.33;;
5587;SDS011;2816;49.778;9.986;2023-12-14T09:21:45;25.70;;;14.70;;
5587;SDS011;2816;49.778;9.986;2023-12-14T09:24:12;17.80;;;11.00;;
5587;SDS011;2816;49.778;9.986;2023-12-14T09:26:39;37.47;;;16.27;;
5587;SDS011;2816;49.778;9.986;2023-12-14T09:29:06;30.23;;;15.17;;
5587;SDS011;2816;49.778;9.986;2023-12-14T09:31:33;27.30;;;15.40;;
5587;SDS011;2816;49.778;9.986;2023-12-14T09:34:01;30.50;;;15.10;;
5587;SDS011;2816;49.778;9.986;2023-12-14T09:36:28;30.63;;;16.20;;
5587;SDS011;2816;49.778;9.986;2023-12-14T09:38:55;40.20;;;15.40;;
5587;SDS011;2816;49.778;9.986;2023-12-14T09:41:22;26.33;;;14.50;;
5587;SDS011;2816;49.778;9.986;2023-12-14T09:43:49;27.93;;;14.77;;
5587;SDS011;2816;49.778;9.986;2023-12-14T09:46:16;28.10;;;14.80;;
5587;SDS011;2816;49.778;9.986;2023-12-14T09:48:44;28.70;;;15.23;;
5587;SDS011;2816;49.778;9.986;2023-12-14T09:51:14;22.03;;;13.97;;
5587;SDS011;2816;49.778;9.986;2023-12-14T09:53:42;25.53;;;13.90;;
5587;SDS011;2816;49.778;9.986;2023-12-14T09:56:09;26.47;;;14.43;;
5587;SDS011;2816;49.778;9.986;2023-12-14T09:58:37;25.80;;;14.77;;
5587;SDS011;2816;49.778;9.986;2023-12-14T10:01:14;27.27;;;14.80;;
5587;SDS011;2816;49.778;9.986;2023-12-14T10:03:48;24.60;;;14.33;;
5587;SDS011;2816;49.778;9.986;2023-12-14T10:06:17;26.57;;;14.57;;
5587;SDS011;2816;49.778;9.986;2023-12-14T10:08:49;33.10;;;16.63;;
5587;SDS011;2816;49.778;9.986;2023-12-14T10:11:21;42.20;;;15.57;;
5587;SDS011;2816;49.778;9.986;2023-12-14T10:13:48;30.20;;;15.50;;
5587;SDS011;2816;49.778;9.986;2023-12-14T10:16:26;30.43;;;15.23;;
5587;SDS011;2816;49.778;9.986;2023-12-14T10:18:54;30.97;;;14.87;;
5587;SDS011;2816;49.778;9.986;2023-12-14T10:21:23;33.07;;;14.43;;
5587;SDS011;2816;49.778;9.986;2023-12-14T10:23:50;28.33;;;13.43;;
5587;SDS011;2816;49.778;9.986;2023-12-14T10:26:17;23.67;;;13.30;;
5587;SDS011;2816;49.778;9.986;2023-12-14T10:28:44;29.00;;;12.83;;
5587;SDS011;2816;49.778;9.986;2023-12-14T10:31:11;29.93;;;13.80;;
5587;SDS011;2816;49.778;9.986;2023-12-14T10:33:38;21.20;;;12.20;;
5587;SDS011;2816;49.778;9.986;2023-12-14T10:36:05;21.60;;;12.30;;
5587;SDS011;2816;49.778;9.986;2023-12-14T10:38:36;21.07;;;12.47;;
5587;SDS011;2816;49.778;9.986;2023-12-14T10:41:04;23.53;;;12.43;;
5587;SDS011;2816;49.778;9.986;2023-12-14T10:43:33;19.33;;;11.50;;
5587;SDS011;2816;49.778;9.986;2023-12-14T10:46:03;23.43;;;12.20;;
5587;SDS011;2816;49.778;9.986;2023-12-14T10:48:32;26.13;;;15.50;;
5587;SDS011;2816;49.778;9.986;2023-12-14T10:51:01;53.47;;;29.20;;
5587;SDS011;2816;49.778;9.986;2023-12-14T10:53:30;33.73;;;19.30;;
5587;SDS011;2816;49.778;9.986;2023-12-14T10:56:00;26.37;;;15.57;;
5587;SDS011;2816;49.778;9.986;2023-12-14T10:58:44;23.90;;;14.57;;
5587;SDS011;2816;49.778;9.986;2023-12-14T11:01:13;35.77;;;17.37;;
5587;SDS011;2816;49.778;9.986;2023-12-14T11:03:41;26.60;;;15.00;;
5587;SDS011;2816;49.778;9.986;2023-12-14T11:06:29;33.50;;;16.97;;
5587;SDS011;2816;49.778;9.986;2023-12-14T11:08:58;22.93;;;12.77;;
5587;SDS011;2816;49.778;9.986;2023-12-14T11:11:32;23.80;;;13.10;;
5587;SDS011;2816;49.778;9.986;2023-12-14T11:14:09;17.80;;;12.67;;
5587;SDS011;2816;49.778;9.986;2023-12-14T11:16:37;29.10;;;15.20;;
5587;SDS011;2816;49.778;9.986;2023-12-14T11:24:54;20.13;;;11.40;;
5587;SDS011;2816;49.778;9.986;2023-12-14T11:27:29;19.23;;;12.83;;
5587;SDS011;2816;49.778;9.986;2023-12-14T11:29:56;24.03;;;13.77;;
5587;SDS011;2816;49.778;9.986;2023-12-14T11:32:24;28.10;;;12.87;;
5587;SDS011;2816;49.778;9.986;2023-12-14T11:34:52;31.67;;;14.07;;
5587;SDS011;2816;49.778;9.986;2023-12-14T11:37:19;28.97;;;13.13;;
5587;SDS011;2816;49.778;9.986;2023-12-14T11:39:49;21.80;;;12.17;;
5587;SDS011;2816;49.778;9.986;2023-12-14T11:42:17;25.33;;;12.87;;
5587;SDS011;2816;49.778;9.986;2023-12-14T11:44:46;25.90;;;14.13;;
5587;SDS011;2816;49.778;9.986;2023-12-14T11:47:13;24.87;;;13.00;;
5587;SDS011;2816;49.778;9.986;2023-12-14T11:49:40;25.63;;;15.00;;
5587;SDS011;2816;49.778;9.986;2023-12-14T11:52:07;22.77;;;14.20;;
5587;SDS011;2816;49.778;9.986;2023-12-14T11:54:34;24.87;;;14.50;;
5587;SDS011;2816;49.778;9.986;2023-12-14T11:57:03;29.20;;;16.10;;
5587;SDS011;2816;49.778;9.986;2023-12-14T11:59:34;29.87;;;15.60;;
5587;SDS011;2816;49.778;9.986;2023-12-14T12:02:02;29.67;;;15.60;;
5587;SDS011;2816;49.778;9.986;2023-12-14T12:04:29;33.60;;;17.00;;
5587;SDS011;2816;49.778;9.986;2023-12-14T12:07:00;34.77;;;16.30;;
5587;SDS011;2816;49.778;9.986;2023-12-14T12:09:32;37.33;;;18.07;;
5587;SDS011;2816;49.778;9.986;2023-12-14T12:12:00;30.13;;;16.63;;
5587;SDS011;2816;49.778;9.986;2023-12-14T12:14:27;37.10;;;18.33;;
5587;SDS011;2816;49.778;9.986;2023-12-14T12:16:54;29.00;;;15.50;;
5587;SDS011;2816;49.778;9.986;2023-12-14T12:19:22;27.37;;;15.73;;
5587;SDS011;2816;49.778;9.986;2023-12-14T12:21:49;26.53;;;16.20;;
5587;SDS011;2816;49.778;9.986;2023-12-14T12:24:16;24.80;;;15.47;;
5587;SDS011;2816;49.778;9.986;2023-12-14T12:26:42;25.77;;;15.87;;
5587;SDS011;2816;49.778;9.986;2023-12-14T12:29:10;29.17;;;16.23;;
5587;SDS011;2816;49.778;9.986;2023-12-14T12:31:36;25.30;;;14.07;;
5587;SDS011;2816;49.778;9.986;2023-12-14T12:34:04;23.47;;;15.10;;
5587;SDS011;2816;49.778;9.986;2023-12-14T12:36:33;22.27;;;12.83;;
5587;SDS011;2816;49.778;9.986;2023-12-14T12:39:00;16.67;;;11.50;;
5587;SDS011;2816;49.778;9.986;2023-12-14T12:41:28;19.57;;;11.97;;
5587;SDS011;2816;49.778;9.986;2023-12-14T12:43:55;19.90;;;12.70;;
5587;SDS011;2816;49.778;9.986;2023-12-14T12:46:22;20.40;;;13.40;;
5587;SDS011;2816;49.778;9.986;2023-12-14T12:48:50;18.90;;;12.07;;
5587;SDS011;2816;49.778;9.986;2023-12-14T12:51:17;19.47;;;13.63;;
5587;SDS011;2816;49.778;9.986;2023-12-14T12:53:45;22.13;;;12.83;;
5587;SDS011;2816;49.778;9.986;2023-12-14T12:56:12;21.97;;;14.20;;
5587;SDS011;2816;49.778;9.986;2023-12-14T12:58:39;25.10;;;13.70;;
5587;SDS011;2816;49.778;9.986;2023-12-14T13:01:06;20.30;;;12.30;;
5587;SDS011;2816;49.778;9.986;2023-12-14T13:03:33;23.80;;;13.60;;
5587;SDS011;2816;49.778;9.986;2023-12-14T13:06:00;20.40;;;13.17;;
5587;SDS011;2816;49.778;9.986;2023-12-14T13:08:28;25.43;;;15.80;;
5587;SDS011;2816;49.778;9.986;2023-12-14T13:10:57;31.90;;;17.97;;
5587;SDS011;2816;49.778;9.986;2023-12-14T13:13:25;27.43;;;14.77;;
5587;SDS011;2816;49.778;9.986;2023-12-14T13:15:52;19.90;;;12.33;;
5587;SDS011;2816;49.778;9.986;2023-12-14T13:18:18;15.43;;;10.87;;
5587;SDS011;2816;49.778;9.986;2023-12-14T13:20:45;20.83;;;12.30;;
5587;SDS011;2816;49.778;9.986;2023-12-14T13:23:12;19.27;;;12.43;;
5587;SDS011;2816;49.778;9.986;2023-12-14T13:25:39;21.13;;;12.50;;
5587;SDS011;2816;49.778;9.986;2023-12-14T13:28:07;20.30;;;12.03;;
5587;SDS011;2816;49.778;9.986;2023-12-14T13:30:34;18.23;;;11.30;;
5587;SDS011;2816;49.778;9.986;2023-12-14T13:33:01;14.90;;;9.50;;
5587;SDS011;2816;49.778;9.986;2023-12-14T13:35:29;20.27;;;10.90;;
5587;SDS011;2816;49.778;9.986;2023-12-14T13:37:56;17.97;;;11.20;;
5587;SDS011;2816;49.778;9.986;2023-12-14T13:40:22;11.00;;;8.40;;
5587;SDS011;2816;49.778;9.986;2023-12-14T13:42:49;13.67;;;9.30;;
5587;SDS011;2816;49.778;9.986;2023-12-14T13:45:18;16.17;;;8.60;;
5587;SDS011;2816;49.778;9.986;2023-12-14T13:47:45;13.30;;;8.60;;
5587;SDS011;2816;49.778;9.986;2023-12-14T13:50:12;11.87;;;7.70;;
5587;SDS011;2816;49.778;9.986;2023-12-14T13:52:38;11.10;;;7.00;;
5587;SDS011;2816;49.778;9.986;2023-12-14T13:55:06;10.20;;;6.70;;
5587;SDS011;2816;49.778;9.986;2023-12-14T13:57:33;10.50;;;7.40;;
5587;SDS011;2816;49.778;9.986;2023-12-14T13:59:59;11.60;;;7.87;;
5587;SDS011;2816;49.778;9.986;2023-12-14T14:02:28;8.87;;;6.40;;
5587;SDS011;2816;49.778;9.986;2023-12-14T14:04:54;8.80;;;6.50;;
5587;SDS011;2816;49.778;9.986;2023-12-14T14:07:21;9.20;;;6.60;;
5587;SDS011;2816;49.778;9.986;2023-12-14T14:09:48;9.07;;;6.07;;
5587;SDS011;2816;49.778;9.986;2023-12-14T14:12:15;10.83;;;7.10;;
5587;SDS011;2816;49.778;9.986;2023-12-14T14:14:42;11.10;;;6.50;;
5587;SDS011;2816;49.778;9.986;2023-12-14T14:17:10;11.60;;;6.83;;
5587;SDS011;2816;49.778;9.986;2023-12-14T14:19:39;10.97;;;6.70;;
5587;SDS011;2816;49.778;9.986;2023-12-14T14:22:06;8.70;;;6.73;;
5587;SDS011;2816;49.778;9.986;2023-12-14T14:24:32;7.00;;;5.80;;
5587;SDS011;2816;49.778;9.986;2023-12-14T14:26:59;6.03;;;5.20;;
5587;SDS011;2816;49.778;9.986;2023-12-14T14:29:26;8.90;;;5.30;;
5587;SDS011;2816;49.778;9.986;2023-12-14T14:31:53;7.93;;;5.50;;
5587;SDS011;2816;49.778;9.986;2023-12-14T14:34:20;5.07;;;3.93;;
5587;SDS011;2816;49.778;9.986;2023-12-14T14:36:50;6.80;;;4.30;;
5587;SDS011;2816;49.778;9.986;2023-12-14T14:39:17;13.03;;;4.17;;
5587;SDS011;2816;49.778;9.986;2023-12-14T14:41:44;3.73;;;3.43;;
5587;SDS011;2816;49.778;9.986;2023-12-14T14:44:11;12.47;;;8.00;;
5587;SDS011;2816;49.778;9.986;2023-12-14T14:46:38;6.00;;;4.60;;
5587;SDS011;2816;49.778;9.986;2023-12-14T14:49:05;8.60;;;4.53;;
5587;SDS011;2816;49.778;9.986;2023-12-14T14:51:32;10.43;;;6.00;;
5587;SDS011;2816;49.778;9.986;2023-12-14T14:54:00;8.47;;;6.13;;
5587;SDS011;2816;49.778;9.986;2023-12-14T14:56:27;17.80;;;6.10;;
5587;SDS011;2816;49.778;9.986;2023-12-14T14:58:53;8.07;;;6.10;;
5587;SDS011;2816;49.778;9.986;2023-12-14T15:01:20;11.53;;;6.23;;
5587;SDS011;2816;49.778;9.986;2023-12-14T15:03:47;6.23;;;5.20;;